sensor_id;sensor_type;location;lat;lon;timestamp;pressure;altitude;pressure_sealevel;temperature;humidity
51999;BME280;38015;50.924;11.598;2023-04-08T00:00:00;99853.79;;;22.28;22.32
51999;BME280;38015;50.924;11.598;2023-04-08T00:02:31;99854.78;;;22.49;22.07
51999;BME280;38015;50.924;11.598;2023-04-08T00:05:01;99858.10;;;22.79;21.65
51999;BME280;38015;50.924;11.598;2023-04-08T00:07:32;99858.04;;;22.72;21.80
51999;BME280;38015;50.924;11.598;2023-04-08T00:10:03;99859.88;;;22.83;21.62
51999;BME280;38015;50.924;11.598;2023-04-08T00:12:33;99858.51;;;22.77;21.68
51999;BME280;38015;50.924;11.598;2023-04-08T00:15:04;99856.89;;;22.74;21.71
51999;BME280;38015;50.924;11.598;2023-04-08T00:17:34;99855.62;;;22.81;21.66
51999;BME280;38015;50.924;11.598;2023-04-08T00:20:05;99856.22;;;22.88;21.58
51999;BME280;38015;50.924;11.598;2023-04-08T00:22:35;99853.16;;;22.59;21.97
51999;BME280;38015;50.924;11.598;2023-04-08T00:25:06;99851.48;;;22.67;21.88
51999;BME280;38015;50.924;11.598;2023-04-08T00:27:35;99852.51;;;22.83;21.62
51999;BME280;38015;50.924;11.598;2023-04-08T00:30:06;99852.58;;;22.71;21.82
51999;BME280;38015;50.924;11.598;2023-04-08T00:32:36;99850.36;;;22.80;21.73
51999;BME280;38015;50.924;11.598;2023-04-08T00:35:07;99853.32;;;22.79;21.75
51999;BME280;38015;50.924;11.598;2023-04-08T00:37:39;99856.11;;;22.54;22.09
51999;BME280;38015;50.924;11.598;2023-04-08T00:40:08;99853.07;;;22.71;21.86
51999;BME280;38015;50.924;11.598;2023-04-08T00:42:38;99854.28;;;22.83;21.74
51999;BME280;38015;50.924;11.598;2023-04-08T00:45:10;99857.06;;;22.92;21.61
51999;BME280;38015;50.924;11.598;2023-04-08T00:47:39;99854.22;;;22.76;21.79
51999;BME280;38015;50.924;11.598;2023-04-08T00:50:10;99854.58;;;22.90;21.62
51999;BME280;38015;50.924;11.598;2023-04-08T00:52:40;99853.63;;;22.67;22.02
51999;BME280;38015;50.924;11.598;2023-04-08T00:55:11;99850.61;;;22.75;21.87
51999;BME280;38015;50.924;11.598;2023-04-08T00:57:43;99850.95;;;22.81;21.80
51999;BME280;38015;50.924;11.598;2023-04-08T01:00:13;99849.15;;;22.39;22.36
51999;BME280;38015;50.924;11.598;2023-04-08T01:02:48;99850.50;;;22.82;21.79
51999;BME280;38015;50.924;11.598;2023-04-08T01:05:21;99851.40;;;22.64;22.05
51999;BME280;38015;50.924;11.598;2023-04-08T01:07:47;99852.20;;;22.71;21.98
51999;BME280;38015;50.924;11.598;2023-04-08T01:10:17;99852.69;;;22.87;21.79
51999;BME280;38015;50.924;11.598;2023-04-08T01:12:49;99856.11;;;22.69;22.01
51999;BME280;38015;50.924;11.598;2023-04-08T01:15:15;99853.72;;;22.90;21.71
51999;BME280;38015;50.924;11.598;2023-04-08T01:17:46;99854.63;;;22.84;21.83
51999;BME280;38015;50.924;11.598;2023-04-08T01:20:16;99854.64;;;22.81;21.86
51999;BME280;38015;50.924;11.598;2023-04-08T01:22:59;99853.24;;;22.75;21.95
51999;BME280;38015;50.924;11.598;2023-04-08T01:25:20;99855.52;;;22.91;21.75
51999;BME280;38015;50.924;11.598;2023-04-08T01:27:48;99853.30;;;22.78;21.93
51999;BME280;38015;50.924;11.598;2023-04-08T01:30:19;99854.39;;;22.99;21.61
51999;BME280;38015;50.924;11.598;2023-04-08T01:32:49;99854.54;;;22.77;21.94
51999;BME280;38015;50.924;11.598;2023-04-08T01:35:19;99852.32;;;22.71;22.07
51999;BME280;38015;50.924;11.598;2023-04-08T01:37:50;99851.16;;;22.53;22.31
51999;BME280;38015;50.924;11.598;2023-04-08T01:40:20;99851.07;;;22.67;22.11
51999;BME280;38015;50.924;11.598;2023-04-08T01:42:53;99850.01;;;22.76;21.98
51999;BME280;38015;50.924;11.598;2023-04-08T01:45:21;99851.02;;;22.88;21.81
51999;BME280;38015;50.924;11.598;2023-04-08T01:47:52;99848.53;;;22.72;22.05
51999;BME280;38015;50.924;11.598;2023-04-08T01:50:22;99849.92;;;22.69;22.12
51999;BME280;38015;50.924;11.598;2023-04-08T01:52:55;99850.36;;;22.67;22.17
51999;BME280;38015;50.924;11.598;2023-04-08T01:55:23;99853.71;;;22.85;21.94
51999;BME280;38015;50.924;11.598;2023-04-08T01:57:58;99851.88;;;22.81;22.03
51999;BME280;38015;50.924;11.598;2023-04-08T02:00:27;99855.32;;;22.98;21.78
51999;BME280;38015;50.924;11.598;2023-04-08T02:02:56;99856.15;;;23.02;21.73
51999;BME280;38015;50.924;11.598;2023-04-08T02:05:25;99855.14;;;22.74;22.08
51999;BME280;38015;50.924;11.598;2023-04-08T02:07:55;99855.68;;;22.93;21.84
51999;BME280;38015;50.924;11.598;2023-04-08T02:10:26;99854.63;;;22.76;22.05
51999;BME280;38015;50.924;11.598;2023-04-08T02:12:57;99854.78;;;22.78;22.02
51999;BME280;38015;50.924;11.598;2023-04-08T02:15:28;99855.95;;;22.79;22.06
51999;BME280;38015;50.924;11.598;2023-04-08T02:18:04;99855.25;;;22.64;22.24
51999;BME280;38015;50.924;11.598;2023-04-08T02:20:36;99858.20;;;22.85;21.96
51999;BME280;38015;50.924;11.598;2023-04-08T02:23:05;99859.65;;;22.89;21.94
51999;BME280;38015;50.924;11.598;2023-04-08T02:25:37;99861.14;;;22.86;21.99
51999;BME280;38015;50.924;11.598;2023-04-08T02:28:04;99858.23;;;22.82;22.06
51999;BME280;38015;50.924;11.598;2023-04-08T02:30:30;99860.05;;;22.84;22.02
51999;BME280;38015;50.924;11.598;2023-04-08T02:33:03;99862.49;;;22.69;22.24
51999;BME280;38015;50.924;11.598;2023-04-08T02:35:31;99863.21;;;22.75;22.16
51999;BME280;38015;50.924;11.598;2023-04-08T02:38:01;99864.73;;;22.91;21.95
51999;BME280;38015;50.924;11.598;2023-04-08T02:40:32;99862.00;;;22.77;22.17
51999;BME280;38015;50.924;11.598;2023-04-08T02:43:03;99863.41;;;22.77;22.14
51999;BME280;38015;50.924;11.598;2023-04-08T02:45:39;99864.95;;;22.77;22.16
51999;BME280;38015;50.924;11.598;2023-04-08T02:48:05;99867.85;;;22.67;22.33
51999;BME280;38015;50.924;11.598;2023-04-08T02:50:34;99866.16;;;22.49;22.57
51999;BME280;38015;50.924;11.598;2023-04-08T02:53:04;99868.78;;;22.71;22.28
51999;BME280;38015;50.924;11.598;2023-04-08T02:55:34;99870.69;;;22.91;22.04
51999;BME280;38015;50.924;11.598;2023-04-08T02:58:05;99872.55;;;22.62;22.41
51999;BME280;38015;50.924;11.598;2023-04-08T03:00:35;99874.42;;;22.72;22.32
51999;BME280;38015;50.924;11.598;2023-04-08T03:03:07;99873.05;;;22.74;22.27
51999;BME280;38015;50.924;11.598;2023-04-08T03:05:36;99871.48;;;22.88;22.05
51999;BME280;38015;50.924;11.598;2023-04-08T03:08:07;99869.38;;;22.77;22.27
51999;BME280;38015;50.924;11.598;2023-04-08T03:10:37;99871.55;;;22.72;22.34
51999;BME280;38015;50.924;11.598;2023-04-08T03:13:08;99866.94;;;22.85;22.17
51999;BME280;38015;50.924;11.598;2023-04-08T03:15:38;99865.38;;;22.71;22.34
51999;BME280;38015;50.924;11.598;2023-04-08T03:18:09;99867.26;;;22.80;22.22
51999;BME280;38015;50.924;11.598;2023-04-08T03:20:39;99867.39;;;22.59;22.53
51999;BME280;38015;50.924;11.598;2023-04-08T03:23:10;99866.72;;;22.70;22.36
51999;BME280;38015;50.924;11.598;2023-04-08T03:25:40;99866.51;;;22.75;22.30
51999;BME280;38015;50.924;11.598;2023-04-08T03:28:13;99867.16;;;22.76;22.28
51999;BME280;38015;50.924;11.598;2023-04-08T03:30:41;99866.66;;;22.81;22.24
51999;BME280;38015;50.924;11.598;2023-04-08T03:33:12;99867.38;;;22.74;22.37
51999;BME280;38015;50.924;11.598;2023-04-08T03:35:42;99869.18;;;22.82;22.24
51999;BME280;38015;50.924;11.598;2023-04-08T03:38:13;99869.80;;;22.83;22.24
51999;BME280;38015;50.924;11.598;2023-04-08T03:40:43;99871.64;;;22.71;22.36
51999;BME280;38015;50.924;11.598;2023-04-08T03:43:14;99870.56;;;22.71;22.38
51999;BME280;38015;50.924;11.598;2023-04-08T03:45:44;99869.39;;;22.80;22.25
51999;BME280;38015;50.924;11.598;2023-04-08T03:48:15;99873.68;;;22.90;22.12
51999;BME280;38015;50.924;11.598;2023-04-08T03:50:45;99870.90;;;22.84;22.21
51999;BME280;38015;50.924;11.598;2023-04-08T03:53:18;99871.64;;;22.71;22.41
51999;BME280;38015;50.924;11.598;2023-04-08T03:55:48;99872.35;;;22.75;22.38
51999;BME280;38015;50.924;11.598;2023-04-08T03:58:17;99873.94;;;22.85;22.22
51999;BME280;38015;50.924;11.598;2023-04-08T04:00:49;99876.00;;;22.88;22.17
51999;BME280;38015;50.924;11.598;2023-04-08T04:03:18;99878.33;;;22.76;22.34
51999;BME280;38015;50.924;11.598;2023-04-08T04:05:49;99881.17;;;22.66;22.53
51999;BME280;38015;50.924;11.598;2023-04-08T04:08:19;99882.73;;;22.85;22.26
51999;BME280;38015;50.924;11.598;2023-04-08T04:10:49;99886.69;;;22.85;22.26
51999;BME280;38015;50.924;11.598;2023-04-08T04:13:20;99887.53;;;22.67;22.51
51999;BME280;38015;50.924;11.598;2023-04-08T04:15:50;99893.74;;;22.64;22.56
51999;BME280;38015;50.924;11.598;2023-04-08T04:18:21;99897.42;;;22.78;22.35
51999;BME280;38015;50.924;11.598;2023-04-08T04:20:51;99897.27;;;22.72;22.50
51999;BME280;38015;50.924;11.598;2023-04-08T04:23:22;99900.47;;;22.89;22.23
51999;BME280;38015;50.924;11.598;2023-04-08T04:25:52;99899.86;;;22.75;22.44
51999;BME280;38015;50.924;11.598;2023-04-08T04:28:23;99900.70;;;22.88;22.24
51999;BME280;38015;50.924;11.598;2023-04-08T04:30:55;99903.65;;;22.81;22.34
51999;BME280;38015;50.924;11.598;2023-04-08T04:33:24;99907.18;;;22.77;22.41
51999;BME280;38015;50.924;11.598;2023-04-08T04:35:54;99914.17;;;22.73;22.47
51999;BME280;38015;50.924;11.598;2023-04-08T04:38:25;99917.06;;;22.88;22.27
51999;BME280;38015;50.924;11.598;2023-04-08T04:40:55;99917.12;;;22.90;22.31
51999;BME280;38015;50.924;11.598;2023-04-08T04:43:26;99913.11;;;22.87;22.28
51999;BME280;38015;50.924;11.598;2023-04-08T04:45:56;99912.06;;;22.75;22.47
51999;BME280;38015;50.924;11.598;2023-04-08T04:48:27;99917.44;;;22.94;22.22
51999;BME280;38015;50.924;11.598;2023-04-08T04:50:59;99917.07;;;22.87;22.27
51999;BME280;38015;50.924;11.598;2023-04-08T04:53:28;99919.20;;;22.94;22.17
51999;BME280;38015;50.924;11.598;2023-04-08T04:55:58;99920.00;;;22.90;22.27
51999;BME280;38015;50.924;11.598;2023-04-08T04:58:29;99922.36;;;22.82;22.35
51999;BME280;38015;50.924;11.598;2023-04-08T05:00:59;99924.10;;;22.80;22.41
51999;BME280;38015;50.924;11.598;2023-04-08T05:03:30;99923.89;;;22.78;22.49
51999;BME280;38015;50.924;11.598;2023-04-08T05:06:00;99924.33;;;22.74;22.53
51999;BME280;38015;50.924;11.598;2023-04-08T05:08:32;99930.10;;;22.79;22.55
51999;BME280;38015;50.924;11.598;2023-04-08T05:11:02;99932.48;;;22.90;22.32
51999;BME280;38015;50.924;11.598;2023-04-08T05:13:32;99936.29;;;22.75;22.53
51999;BME280;38015;50.924;11.598;2023-04-08T05:16:02;99939.54;;;22.80;22.45
51999;BME280;38015;50.924;11.598;2023-04-08T05:18:33;99940.62;;;22.79;22.48
51999;BME280;38015;50.924;11.598;2023-04-08T05:21:03;99937.90;;;22.76;22.51
51999;BME280;38015;50.924;11.598;2023-04-08T05:23:34;99940.33;;;22.97;22.23
51999;BME280;38015;50.924;11.598;2023-04-08T05:26:06;99940.63;;;22.84;22.42
51999;BME280;38015;50.924;11.598;2023-04-08T05:28:35;99942.92;;;22.76;22.53
51999;BME280;38015;50.924;11.598;2023-04-08T05:31:05;99941.42;;;22.90;22.31
51999;BME280;38015;50.924;11.598;2023-04-08T05:33:36;99938.79;;;22.79;22.51
51999;BME280;38015;50.924;11.598;2023-04-08T05:36:06;99943.15;;;22.96;22.25
51999;BME280;38015;50.924;11.598;2023-04-08T05:38:37;99943.11;;;22.81;22.47
51999;BME280;38015;50.924;11.598;2023-04-08T05:41:07;99945.62;;;22.76;22.58
51999;BME280;38015;50.924;11.598;2023-04-08T05:43:38;99948.21;;;22.86;22.40
51999;BME280;38015;50.924;11.598;2023-04-08T05:46:09;99953.31;;;22.79;22.53
51999;BME280;38015;50.924;11.598;2023-04-08T05:48:39;99954.78;;;22.82;22.47
51999;BME280;38015;50.924;11.598;2023-04-08T05:51:13;99954.05;;;22.78;22.55
51999;BME280;38015;50.924;11.598;2023-04-08T05:53:40;99959.53;;;22.92;22.37
51999;BME280;38015;50.924;11.598;2023-04-08T05:56:10;99958.37;;;22.78;22.56
51999;BME280;38015;50.924;11.598;2023-04-08T05:58:41;99957.22;;;22.80;22.54
51999;BME280;38015;50.924;11.598;2023-04-08T06:01:11;99958.99;;;22.85;22.49
51999;BME280;38015;50.924;11.598;2023-04-08T06:03:42;99957.12;;;22.81;22.53
51999;BME280;38015;50.924;11.598;2023-04-08T06:06:12;99958.96;;;22.75;22.63
51999;BME280;38015;50.924;11.598;2023-04-08T06:08:43;99969.17;;;22.88;22.42
51999;BME280;38015;50.924;11.598;2023-04-08T06:11:13;99974.73;;;22.92;22.38
51999;BME280;38015;50.924;11.598;2023-04-08T06:13:44;99982.45;;;22.82;22.53
51999;BME280;38015;50.924;11.598;2023-04-08T06:16:15;99986.05;;;22.60;22.87
51999;BME280;38015;50.924;11.598;2023-04-08T06:18:44;99989.23;;;22.74;22.72
51999;BME280;38015;50.924;11.598;2023-04-08T06:21:15;99989.70;;;22.74;22.72
51999;BME280;38015;50.924;11.598;2023-04-08T06:23:45;99989.43;;;22.50;23.16
51999;BME280;38015;50.924;11.598;2023-04-08T06:26:16;99989.04;;;22.67;22.86
51999;BME280;38015;50.924;11.598;2023-04-08T06:28:46;99986.96;;;22.45;23.14
51999;BME280;38015;50.924;11.598;2023-04-08T06:31:17;99982.47;;;22.77;22.69
51999;BME280;38015;50.924;11.598;2023-04-08T06:33:47;99983.47;;;22.79;22.67
51999;BME280;38015;50.924;11.598;2023-04-08T06:36:20;99982.25;;;22.75;22.69
51999;BME280;38015;50.924;11.598;2023-04-08T06:38:48;99984.41;;;22.64;22.88
51999;BME280;38015;50.924;11.598;2023-04-08T06:41:19;99993.31;;;22.81;22.64
51999;BME280;38015;50.924;11.598;2023-04-08T06:43:49;99997.20;;;22.80;22.64
51999;BME280;38015;50.924;11.598;2023-04-08T06:46:20;100005.27;;;22.63;22.98
51999;BME280;38015;50.924;11.598;2023-04-08T06:48:50;100009.19;;;22.80;22.69
51999;BME280;38015;50.924;11.598;2023-04-08T06:51:21;100010.80;;;22.74;22.76
51999;BME280;38015;50.924;11.598;2023-04-08T06:53:53;100010.62;;;22.44;23.26
51999;BME280;38015;50.924;11.598;2023-04-08T06:56:22;100007.78;;;22.59;23.03
51999;BME280;38015;50.924;11.598;2023-04-08T06:58:53;100003.35;;;22.53;23.15
51999;BME280;38015;50.924;11.598;2023-04-08T07:01:23;100002.91;;;22.70;22.88
51999;BME280;38015;50.924;11.598;2023-04-08T07:03:53;100004.10;;;22.70;22.89
51999;BME280;38015;50.924;11.598;2023-04-08T07:06:24;100007.20;;;22.73;22.87
51999;BME280;38015;50.924;11.598;2023-04-08T07:08:54;100010.39;;;22.82;22.77
51999;BME280;38015;50.924;11.598;2023-04-08T07:11:25;100019.92;;;22.71;22.86
51999;BME280;38015;50.924;11.598;2023-04-08T07:13:55;100025.85;;;22.80;22.74
51999;BME280;38015;50.924;11.598;2023-04-08T07:16:26;100026.51;;;22.79;22.75
51999;BME280;38015;50.924;11.598;2023-04-08T07:18:57;100037.95;;;22.60;23.11
51999;BME280;38015;50.924;11.598;2023-04-08T07:21:29;100037.99;;;22.59;23.12
51999;BME280;38015;50.924;11.598;2023-04-08T07:23:57;100038.51;;;22.74;22.89
51999;BME280;38015;50.924;11.598;2023-04-08T07:26:28;100042.59;;;22.60;23.06
51999;BME280;38015;50.924;11.598;2023-04-08T07:28:58;100038.50;;;22.67;23.03
51999;BME280;38015;50.924;11.598;2023-04-08T07:31:29;100038.64;;;22.66;23.00
51999;BME280;38015;50.924;11.598;2023-04-08T07:33:59;100035.81;;;22.44;23.30
51999;BME280;38015;50.924;11.598;2023-04-08T07:36:30;100036.63;;;22.39;23.39
51999;BME280;38015;50.924;11.598;2023-04-08T07:39:00;100034.77;;;22.68;22.99
51999;BME280;38015;50.924;11.598;2023-04-08T07:41:31;100034.39;;;22.68;23.01
51999;BME280;38015;50.924;11.598;2023-04-08T07:44:01;100040.39;;;22.66;23.05
51999;BME280;38015;50.924;11.598;2023-04-08T07:46:36;100044.06;;;22.60;23.09
51999;BME280;38015;50.924;11.598;2023-04-08T07:49:02;100043.09;;;22.48;23.27
51999;BME280;38015;50.924;11.598;2023-04-08T07:51:33;100032.83;;;22.73;22.91
51999;BME280;38015;50.924;11.598;2023-04-08T07:54:03;100030.02;;;22.78;22.80
51999;BME280;38015;50.924;11.598;2023-04-08T07:56:36;100031.65;;;22.69;22.95
51999;BME280;38015;50.924;11.598;2023-04-08T07:59:05;100034.72;;;22.71;22.94
51999;BME280;38015;50.924;11.598;2023-04-08T08:01:35;100041.61;;;22.62;23.07
51999;BME280;38015;50.924;11.598;2023-04-08T08:04:05;100045.62;;;22.68;23.01
51999;BME280;38015;50.924;11.598;2023-04-08T08:06:36;100046.61;;;22.58;23.16
51999;BME280;38015;50.924;11.598;2023-04-08T08:09:06;100052.12;;;22.69;23.00
51999;BME280;38015;50.924;11.598;2023-04-08T08:11:37;100060.06;;;22.90;22.70
51999;BME280;38015;50.924;11.598;2023-04-08T08:14:07;100063.77;;;22.79;22.85
51999;BME280;38015;50.924;11.598;2023-04-08T08:16:38;100064.87;;;22.65;23.05
51999;BME280;38015;50.924;11.598;2023-04-08T08:19:08;100072.12;;;22.53;23.23
51999;BME280;38015;50.924;11.598;2023-04-08T08:21:39;100074.02;;;22.87;22.76
51999;BME280;38015;50.924;11.598;2023-04-08T08:24:09;100072.27;;;22.77;22.92
51999;BME280;38015;50.924;11.598;2023-04-08T08:26:40;100074.12;;;22.81;22.84
51999;BME280;38015;50.924;11.598;2023-04-08T08:29:11;100075.98;;;22.98;22.60
51999;BME280;38015;50.924;11.598;2023-04-08T08:31:41;100079.68;;;22.57;23.19
51999;BME280;38015;50.924;11.598;2023-04-08T08:34:11;100084.08;;;22.81;22.87
51999;BME280;38015;50.924;11.598;2023-04-08T08:36:42;100081.47;;;22.68;23.08
51999;BME280;38015;50.924;11.598;2023-04-08T08:39:12;100082.64;;;22.81;22.88
51999;BME280;38015;50.924;11.598;2023-04-08T08:41:43;100089.06;;;22.53;23.31
51999;BME280;38015;50.924;11.598;2023-04-08T08:44:13;100090.69;;;22.59;23.28
51999;BME280;38015;50.924;11.598;2023-04-08T08:46:46;100089.68;;;22.70;23.10
51999;BME280;38015;50.924;11.598;2023-04-08T08:49:14;100089.49;;;22.66;23.20
51999;BME280;38015;50.924;11.598;2023-04-08T08:51:45;100086.74;;;22.76;23.03
51999;BME280;38015;50.924;11.598;2023-04-08T08:54:16;100092.69;;;22.48;23.40
51999;BME280;38015;50.924;11.598;2023-04-08T08:56:46;100095.72;;;22.79;22.96
51999;BME280;38015;50.924;11.598;2023-04-08T08:59:16;100101.29;;;22.41;23.51
51999;BME280;38015;50.924;11.598;2023-04-08T09:01:47;100096.76;;;22.70;23.08
51999;BME280;38015;50.924;11.598;2023-04-08T09:04:19;100102.05;;;22.84;22.90
51999;BME280;38015;50.924;11.598;2023-04-08T09:06:49;100106.47;;;22.92;22.78
51999;BME280;38015;50.924;11.598;2023-04-08T09:09:18;100106.71;;;22.83;22.93
51999;BME280;38015;50.924;11.598;2023-04-08T09:11:49;100118.12;;;22.67;23.15
51999;BME280;38015;50.924;11.598;2023-04-08T09:14:21;100118.65;;;22.63;23.23
51999;BME280;38015;50.924;11.598;2023-04-08T09:16:50;100117.15;;;22.70;23.13
51999;BME280;38015;50.924;11.598;2023-04-08T09:19:20;100123.43;;;22.94;22.77
51999;BME280;38015;50.924;11.598;2023-04-08T09:24:27;100122.70;;;22.81;23.01
51999;BME280;38015;50.924;11.598;2023-04-08T09:26:52;100123.10;;;22.87;22.89
51999;BME280;38015;50.924;11.598;2023-04-08T09:29:23;100129.75;;;22.83;22.97
51999;BME280;38015;50.924;11.598;2023-04-08T09:31:53;100137.50;;;22.52;23.49
51999;BME280;38015;50.924;11.598;2023-04-08T09:34:24;100139.16;;;22.77;23.10
51999;BME280;38015;50.924;11.598;2023-04-08T09:36:54;100145.28;;;22.70;23.19
51999;BME280;38015;50.924;11.598;2023-04-08T09:39:24;100143.40;;;22.72;23.19
51999;BME280;38015;50.924;11.598;2023-04-08T09:41:59;100145.12;;;22.80;23.06
51999;BME280;38015;50.924;11.598;2023-04-08T09:44:29;100149.96;;;22.89;22.89
51999;BME280;38015;50.924;11.598;2023-04-08T09:47:03;100151.85;;;22.88;22.96
51999;BME280;38015;50.924;11.598;2023-04-08T09:49:31;100152.68;;;22.93;22.96
51999;BME280;38015;50.924;11.598;2023-04-08T09:52:01;100149.06;;;22.78;23.10
51999;BME280;38015;50.924;11.598;2023-04-08T09:54:38;100152.40;;;22.64;23.33
51999;BME280;38015;50.924;11.598;2023-04-08T09:57:03;100153.97;;;22.95;22.90
51999;BME280;38015;50.924;11.598;2023-04-08T09:59:29;100153.84;;;23.03;22.73
51999;BME280;38015;50.924;11.598;2023-04-08T10:02:06;100156.24;;;22.92;22.97
51999;BME280;38015;50.924;11.598;2023-04-08T10:04:36;100157.13;;;22.87;22.99
51999;BME280;38015;50.924;11.598;2023-04-08T10:07:05;100161.81;;;22.56;23.47
51999;BME280;38015;50.924;11.598;2023-04-08T10:09:30;100158.38;;;22.80;23.13
51999;BME280;38015;50.924;11.598;2023-04-08T10:12:01;100156.97;;;22.86;23.03
51999;BME280;38015;50.924;11.598;2023-04-08T10:14:31;100160.34;;;22.65;23.37
51999;BME280;38015;50.924;11.598;2023-04-08T10:19:37;100160.80;;;22.93;22.95
51999;BME280;38015;50.924;11.598;2023-04-08T10:24:33;100160.53;;;22.76;23.20
51999;BME280;38015;50.924;11.598;2023-04-08T10:27:12;100161.19;;;22.77;23.17
51999;BME280;38015;50.924;11.598;2023-04-08T10:29:34;100159.32;;;22.90;22.98
51999;BME280;38015;50.924;11.598;2023-04-08T10:32:04;100159.64;;;22.89;22.99
51999;BME280;38015;50.924;11.598;2023-04-08T10:37:05;100161.59;;;22.69;23.29
51999;BME280;38015;50.924;11.598;2023-04-08T10:39:36;100161.96;;;22.85;23.05
51999;BME280;38015;50.924;11.598;2023-04-08T10:42:07;100163.25;;;22.78;23.18
51999;BME280;38015;50.924;11.598;2023-04-08T10:44:43;100157.87;;;22.84;23.09
51999;BME280;38015;50.924;11.598;2023-04-08T10:47:07;100158.94;;;22.81;23.24
51999;BME280;38015;50.924;11.598;2023-04-08T10:49:39;100157.46;;;22.78;23.26
51999;BME280;38015;50.924;11.598;2023-04-08T10:52:09;100155.95;;;23.00;22.90
51999;BME280;38015;50.924;11.598;2023-04-08T10:54:45;100158.49;;;23.01;22.88
51999;BME280;38015;50.924;11.598;2023-04-08T10:57:09;100161.70;;;22.98;22.92
51999;BME280;38015;50.924;11.598;2023-04-08T10:59:40;100163.28;;;22.83;23.11
51999;BME280;38015;50.924;11.598;2023-04-08T11:02:12;100161.16;;;22.80;23.19
51999;BME280;38015;50.924;11.598;2023-04-08T11:04:41;100160.23;;;22.63;23.47
51999;BME280;38015;50.924;11.598;2023-04-08T11:07:11;100162.24;;;22.71;23.41
51999;BME280;38015;50.924;11.598;2023-04-08T11:09:42;100163.18;;;22.72;23.45
51999;BME280;38015;50.924;11.598;2023-04-08T11:12:14;100164.27;;;22.65;23.53
51999;BME280;38015;50.924;11.598;2023-04-08T11:14:43;100166.09;;;22.56;23.65
51999;BME280;38015;50.924;11.598;2023-04-08T11:17:14;100166.68;;;22.56;23.68
51999;BME280;38015;50.924;11.598;2023-04-08T11:19:45;100166.12;;;22.75;23.37
51999;BME280;38015;50.924;11.598;2023-04-08T11:22:15;100166.20;;;22.84;23.23
51999;BME280;38015;50.924;11.598;2023-04-08T11:24:45;100166.38;;;22.87;23.19
51999;BME280;38015;50.924;11.598;2023-04-08T11:27:16;100166.72;;;23.01;22.97
51999;BME280;38015;50.924;11.598;2023-04-08T11:29:46;100171.31;;;22.87;23.20
51999;BME280;38015;50.924;11.598;2023-04-08T11:32:17;100169.11;;;22.76;23.37
51999;BME280;38015;50.924;11.598;2023-04-08T11:34:47;100166.37;;;22.98;23.02
51999;BME280;38015;50.924;11.598;2023-04-08T11:37:18;100162.62;;;22.98;23.02
51999;BME280;38015;50.924;11.598;2023-04-08T11:39:48;100164.25;;;23.03;22.96
51999;BME280;38015;50.924;11.598;2023-04-08T11:42:25;100165.12;;;23.06;22.90
51999;BME280;38015;50.924;11.598;2023-04-08T11:44:50;100164.94;;;23.08;22.89
51999;BME280;38015;50.924;11.598;2023-04-08T11:47:19;100164.27;;;23.00;23.01
51999;BME280;38015;50.924;11.598;2023-04-08T11:49:51;100166.40;;;23.00;23.03
51999;BME280;38015;50.924;11.598;2023-04-08T11:52:20;100166.53;;;22.91;23.13
51999;BME280;38015;50.924;11.598;2023-04-08T11:54:55;100162.31;;;22.95;23.12
51999;BME280;38015;50.924;11.598;2023-04-08T11:57:27;100162.32;;;22.96;23.11
51999;BME280;38015;50.924;11.598;2023-04-08T11:59:54;100164.25;;;22.95;23.09
51999;BME280;38015;50.924;11.598;2023-04-08T12:02:22;100162.35;;;22.90;23.16
51999;BME280;38015;50.924;11.598;2023-04-08T12:04:53;100163.27;;;23.01;23.02
51999;BME280;38015;50.924;11.598;2023-04-08T12:07:23;100164.11;;;22.84;23.29
51999;BME280;38015;50.924;11.598;2023-04-08T12:09:54;100168.03;;;22.93;23.13
51999;BME280;38015;50.924;11.598;2023-04-08T12:12:24;100173.09;;;22.79;23.36
51999;BME280;38015;50.924;11.598;2023-04-08T12:14:55;100179.43;;;22.87;23.24
51999;BME280;38015;50.924;11.598;2023-04-08T12:17:25;100181.81;;;22.88;23.23
51999;BME280;38015;50.924;11.598;2023-04-08T12:19:56;100181.30;;;22.91;23.21
51999;BME280;38015;50.924;11.598;2023-04-08T12:22:26;100182.05;;;22.83;23.37
51999;BME280;38015;50.924;11.598;2023-04-08T12:24:57;100183.14;;;22.71;23.51
51999;BME280;38015;50.924;11.598;2023-04-08T12:27:28;100181.83;;;22.78;23.49
51999;BME280;38015;50.924;11.598;2023-04-08T12:29:58;100181.74;;;23.00;23.11
51999;BME280;38015;50.924;11.598;2023-04-08T12:32:28;100186.20;;;22.98;23.14
51999;BME280;38015;50.924;11.598;2023-04-08T12:34:59;100187.16;;;22.87;23.32
51999;BME280;38015;50.924;11.598;2023-04-08T12:37:29;100185.18;;;22.84;23.35
51999;BME280;38015;50.924;11.598;2023-04-08T12:40:00;100181.93;;;23.11;22.96
51999;BME280;38015;50.924;11.598;2023-04-08T12:42:30;100183.66;;;22.90;23.28
51999;BME280;38015;50.924;11.598;2023-04-08T12:45:01;100183.56;;;22.98;23.20
51999;BME280;38015;50.924;11.598;2023-04-08T12:47:31;100182.34;;;23.07;23.03
51999;BME280;38015;50.924;11.598;2023-04-08T12:50:02;100180.41;;;23.03;23.08
51999;BME280;38015;50.924;11.598;2023-04-08T12:52:32;100179.11;;;22.99;23.16
51999;BME280;38015;50.924;11.598;2023-04-08T12:55:05;100180.45;;;22.83;23.42
51999;BME280;38015;50.924;11.598;2023-04-08T12:57:33;100178.86;;;22.97;23.23
51999;BME280;38015;50.924;11.598;2023-04-08T13:00:05;100178.77;;;22.94;23.28
51999;BME280;38015;50.924;11.598;2023-04-08T13:02:35;100178.94;;;22.97;23.27
51999;BME280;38015;50.924;11.598;2023-04-08T13:05:05;100179.38;;;22.91;23.37
51999;BME280;38015;50.924;11.598;2023-04-08T13:07:35;100179.00;;;23.04;23.17
51999;BME280;38015;50.924;11.598;2023-04-08T13:10:07;100179.29;;;22.86;23.44